sensor_id;sensor_type;location;lat;lon;timestamp;temperature;humidity
11840;DHT22;5979;50.800;4.904;2022-12-29T00:01:48;11.20;99.90
11840;DHT22;5979;50.800;4.904;2022-12-29T00:04:14;11.20;99.90
11840;DHT22;5979;50.800;4.904;2022-12-29T00:06:42;11.20;99.90
11840;DHT22;5979;50.800;4.904;2022-12-29T00:09:08;11.20;99.90
11840;DHT22;5979;50.800;4.904;2022-12-29T00:11:34;11.20;99.90
11840;DHT22;5979;50.800;4.904;2022-12-29T00:13:59;11.20;99.90
11840;DHT22;5979;50.800;4.904;2022-12-29T00:16:45;11.20;99.90
11840;DHT22;5979;50.800;4.904;2022-12-29T00:19:11;11.20;99.90
11840;DHT22;5979;50.800;4.904;2022-12-29T00:21:57;11.10;99.90
11840;DHT22;5979;50.800;4.904;2022-12-29T00:24:42;11.10;99.90
11840;DHT22;5979;50.800;4.904;2022-12-29T00:27:28;11.20;99.90
11840;DHT22;5979;50.800;4.904;2022-12-29T00:30:16;11.10;99.90
11840;DHT22;5979;50.800;4.904;2022-12-29T00:33:00;11.10;99.90
11840;DHT22;5979;50.800;4.904;2022-12-29T00:35:57;11.20;99.90
11840;DHT22;5979;50.800;4.904;2022-12-29T00:38:25;11.10;99.90
11840;DHT22;5979;50.800;4.904;2022-12-29T00:41:10;11.20;99.90
11840;DHT22;5979;50.800;4.904;2022-12-29T00:43:54;11.10;99.90
11840;DHT22;5979;50.800;4.904;2022-12-29T00:46:38;11.10;99.90
11840;DHT22;5979;50.800;4.904;2022-12-29T00:49:05;11.10;99.90
11840;DHT22;5979;50.800;4.904;2022-12-29T00:51:50;11.10;99.90
11840;DHT22;5979;50.800;4.904;2022-12-29T00:54:17;11.20;99.90
11840;DHT22;5979;50.800;4.904;2022-12-29T00:56:42;11.10;99.90
11840;DHT22;5979;50.800;4.904;2022-12-29T00:59:10;11.10;99.90
11840;DHT22;5979;50.800;4.904;2022-12-29T01:01:37;11.20;99.90
11840;DHT22;5979;50.800;4.904;2022-12-29T01:04:03;11.10;99.90
11840;DHT22;5979;50.800;4.904;2022-12-29T01:06:29;11.10;99.90
11840;DHT22;5979;50.800;4.904;2022-12-29T01:08:55;11.10;99.90
11840;DHT22;5979;50.800;4.904;2022-12-29T01:11:40;11.20;99.90
11840;DHT22;5979;50.800;4.904;2022-12-29T01:14:07;11.20;99.90
11840;DHT22;5979;50.800;4.904;2022-12-29T01:16:33;11.20;99.90
11840;DHT22;5979;50.800;4.904;2022-12-29T01:18:59;11.20;99.90
11840;DHT22;5979;50.800;4.904;2022-12-29T01:21:25;11.20;99.90
11840;DHT22;5979;50.800;4.904;2022-12-29T01:23:51;11.20;99.90
11840;DHT22;5979;50.800;4.904;2022-12-29T01:26:18;11.10;99.90
11840;DHT22;5979;50.800;4.904;2022-12-29T01:28:43;11.10;99.90
11840;DHT22;5979;50.800;4.904;2022-12-29T01:31:10;11.20;99.90
11840;DHT22;5979;50.800;4.904;2022-12-29T01:33:36;11.10;99.90
11840;DHT22;5979;50.800;4.904;2022-12-29T01:36:03;11.10;99.90
11840;DHT22;5979;50.800;4.904;2022-12-29T01:38:29;11.10;99.90
11840;DHT22;5979;50.800;4.904;2022-12-29T01:40:55;11.10;99.90
11840;DHT22;5979;50.800;4.904;2022-12-29T01:43:21;11.20;99.90
11840;DHT22;5979;50.800;4.904;2022-12-29T01:45:53;11.10;99.90
11840;DHT22;5979;50.800;4.904;2022-12-29T01:48:19;11.10;99.90
11840;DHT22;5979;50.800;4.904;2022-12-29T01:50:50;11.00;99.90
11840;DHT22;5979;50.800;4.904;2022-12-29T01:53:27;11.00;99.90
11840;DHT22;5979;50.800;4.904;2022-12-29T01:56:00;11.00;99.90
11840;DHT22;5979;50.800;4.904;2022-12-29T01:58:32;10.90;99.90
11840;DHT22;5979;50.800;4.904;2022-12-29T02:00:59;10.90;99.90
11840;DHT22;5979;50.800;4.904;2022-12-29T02:03:26;10.90;99.90
11840;DHT22;5979;50.800;4.904;2022-12-29T02:06:02;10.90;99.90
11840;DHT22;5979;50.800;4.904;2022-12-29T02:08:29;10.90;99.90
11840;DHT22;5979;50.800;4.904;2022-12-29T02:10:59;11.00;99.90
11840;DHT22;5979;50.800;4.904;2022-12-29T02:13:26;11.00;99.90
11840;DHT22;5979;50.800;4.904;2022-12-29T02:27:31;10.90;99.90
11840;DHT22;5979;50.800;4.904;2022-12-29T02:33:37;10.80;99.90
11840;DHT22;5979;50.800;4.904;2022-12-29T02:36:18;10.80;99.90
11840;DHT22;5979;50.800;4.904;2022-12-29T02:41:39;10.80;99.90
11840;DHT22;5979;50.800;4.904;2022-12-29T02:47:00;10.80;99.90
11840;DHT22;5979;50.800;4.904;2022-12-29T02:49:49;10.80;99.90
11840;DHT22;5979;50.800;4.904;2022-12-29T02:52:25;10.80;99.90
11840;DHT22;5979;50.800;4.904;2022-12-29T02:54:54;10.80;99.90
11840;DHT22;5979;50.800;4.904;2022-12-29T02:59:53;10.80;99.90
11840;DHT22;5979;50.800;4.904;2022-12-29T03:08:13;10.80;99.90
11840;DHT22;5979;50.800;4.904;2022-12-29T03:24:13;10.90;99.90
11840;DHT22;5979;50.800;4.904;2022-12-29T03:26:41;11.00;99.90
11840;DHT22;5979;50.800;4.904;2022-12-29T03:29:08;11.00;99.90
11840;DHT22;5979;50.800;4.904;2022-12-29T03:31:36;11.00;99.90
11840;DHT22;5979;50.800;4.904;2022-12-29T03:34:03;11.10;99.90
11840;DHT22;5979;50.800;4.904;2022-12-29T03:36:35;11.10;99.90
11840;DHT22;5979;50.800;4.904;2022-12-29T03:39:09;11.10;99.90
11840;DHT22;5979;50.800;4.904;2022-12-29T03:41:42;11.10;99.90
11840;DHT22;5979;50.800;4.904;2022-12-29T03:44:10;11.00;99.90
11840;DHT22;5979;50.800;4.904;2022-12-29T03:46:37;11.00;99.90
11840;DHT22;5979;50.800;4.904;2022-12-29T03:49:03;10.90;99.90
11840;DHT22;5979;50.800;4.904;2022-12-29T03:51:28;10.90;99.90
11840;DHT22;5979;50.800;4.904;2022-12-29T03:53:54;10.90;99.90
11840;DHT22;5979;50.800;4.904;2022-12-29T03:56:20;10.80;99.90
11840;DHT22;5979;50.800;4.904;2022-12-29T03:58:45;10.80;99.90
11840;DHT22;5979;50.800;4.904;2022-12-29T04:01:11;10.80;99.90
11840;DHT22;5979;50.800;4.904;2022-12-29T04:03:36;10.80;99.90
11840;DHT22;5979;50.800;4.904;2022-12-29T04:06:02;10.70;99.90
11840;DHT22;5979;50.800;4.904;2022-12-29T04:08:28;10.70;99.90
11840;DHT22;5979;50.800;4.904;2022-12-29T04:10:54;10.70;99.90
11840;DHT22;5979;50.800;4.904;2022-12-29T04:13:20;10.70;99.90
11840;DHT22;5979;50.800;4.904;2022-12-29T04:15:46;10.70;99.90
11840;DHT22;5979;50.800;4.904;2022-12-29T04:18:12;10.70;99.90
11840;DHT22;5979;50.800;4.904;2022-12-29T04:20:38;10.70;99.90
11840;DHT22;5979;50.800;4.904;2022-12-29T04:23:22;10.70;99.90
11840;DHT22;5979;50.800;4.904;2022-12-29T04:25:48;10.60;99.90
11840;DHT22;5979;50.800;4.904;2022-12-29T04:28:15;10.60;99.90
11840;DHT22;5979;50.800;4.904;2022-12-29T04:30:40;10.60;99.90
11840;DHT22;5979;50.800;4.904;2022-12-29T04:33:06;10.60;99.90
11840;DHT22;5979;50.800;4.904;2022-12-29T04:35:32;10.50;99.90
11840;DHT22;5979;50.800;4.904;2022-12-29T04:37:58;10.40;99.90
11840;DHT22;5979;50.800;4.904;2022-12-29T04:40:23;10.40;99.90
11840;DHT22;5979;50.800;4.904;2022-12-29T04:42:50;10.40;99.90
11840;DHT22;5979;50.800;4.904;2022-12-29T04:45:16;10.40;99.90
11840;DHT22;5979;50.800;4.904;2022-12-29T04:47:41;10.40;99.90
11840;DHT22;5979;50.800;4.904;2022-12-29T04:50:08;10.40;99.90
11840;DHT22;5979;50.800;4.904;2022-12-29T04:52:34;10.40;99.90
11840;DHT22;5979;50.800;4.904;2022-12-29T04:54:59;10.30;99.90
11840;DHT22;5979;50.800;4.904;2022-12-29T04:57:25;10.40;99.90
11840;DHT22;5979;50.800;4.904;2022-12-29T04:59:51;10.40;99.90
11840;DHT22;5979;50.800;4.904;2022-12-29T05:02:17;10.40;99.90
11840;DHT22;5979;50.800;4.904;2022-12-29T05:04:42;10.40;99.90
11840;DHT22;5979;50.800;4.904;2022-12-29T05:07:08;10.40;99.90
11840;DHT22;5979;50.800;4.904;2022-12-29T05:09:34;10.40;99.90
11840;DHT22;5979;50.800;4.904;2022-12-29T05:12:00;10.40;99.90
11840;DHT22;5979;50.800;4.904;2022-12-29T05:14:26;10.40;99.90
11840;DHT22;5979;50.800;4.904;2022-12-29T05:16:51;10.40;99.90
11840;DHT22;5979;50.800;4.904;2022-12-29T05:19:17;10.40;99.90
11840;DHT22;5979;50.800;4.904;2022-12-29T05:21:43;10.50;99.90
11840;DHT22;5979;50.800;4.904;2022-12-29T05:24:09;10.50;99.90
11840;DHT22;5979;50.800;4.904;2022-12-29T05:26:35;10.50;99.90
11840;DHT22;5979;50.800;4.904;2022-12-29T05:29:00;10.50;99.90
11840;DHT22;5979;50.800;4.904;2022-12-29T05:31:26;10.50;99.90
11840;DHT22;5979;50.800;4.904;2022-12-29T05:33:52;10.50;99.90
11840;DHT22;5979;50.800;4.904;2022-12-29T05:36:18;10.60;99.90
11840;DHT22;5979;50.800;4.904;2022-12-29T05:38:44;10.60;99.90
11840;DHT22;5979;50.800;4.904;2022-12-29T05:41:10;10.70;99.90
11840;DHT22;5979;50.800;4.904;2022-12-29T05:43:36;10.70;99.90
11840;DHT22;5979;50.800;4.904;2022-12-29T05:46:02;10.70;99.90
11840;DHT22;5979;50.800;4.904;2022-12-29T05:48:28;10.70;99.90
11840;DHT22;5979;50.800;4.904;2022-12-29T05:50:54;10.70;99.90
11840;DHT22;5979;50.800;4.904;2022-12-29T05:53:20;10.60;99.90
11840;DHT22;5979;50.800;4.904;2022-12-29T05:55:49;10.60;99.90
11840;DHT22;5979;50.800;4.904;2022-12-29T05:58:16;10.60;99.90
11840;DHT22;5979;50.800;4.904;2022-12-29T06:00:42;10.60;99.90
11840;DHT22;5979;50.800;4.904;2022-12-29T06:03:08;10.60;99.90
11840;DHT22;5979;50.800;4.904;2022-12-29T06:05:34;10.60;99.90
11840;DHT22;5979;50.800;4.904;2022-12-29T06:07:59;10.60;99.90
11840;DHT22;5979;50.800;4.904;2022-12-29T06:10:25;10.60;99.90
11840;DHT22;5979;50.800;4.904;2022-12-29T06:12:51;10.60;99.90
11840;DHT22;5979;50.800;4.904;2022-12-29T06:15:16;10.60;99.90
11840;DHT22;5979;50.800;4.904;2022-12-29T06:17:42;10.60;99.90
11840;DHT22;5979;50.800;4.904;2022-12-29T06:20:09;10.60;99.90
11840;DHT22;5979;50.800;4.904;2022-12-29T06:22:36;10.50;99.90
11840;DHT22;5979;50.800;4.904;2022-12-29T06:25:02;10.50;99.90
11840;DHT22;5979;50.800;4.904;2022-12-29T06:27:28;10.50;99.90
11840;DHT22;5979;50.800;4.904;2022-12-29T06:29:53;10.50;99.90
11840;DHT22;5979;50.800;4.904;2022-12-29T06:32:19;10.50;99.90
11840;DHT22;5979;50.800;4.904;2022-12-29T06:34:45;10.50;99.90
11840;DHT22;5979;50.800;4.904;2022-12-29T06:37:11;10.40;99.90
11840;DHT22;5979;50.800;4.904;2022-12-29T06:39:37;10.40;99.90
11840;DHT22;5979;50.800;4.904;2022-12-29T06:42:03;10.40;99.90
11840;DHT22;5979;50.800;4.904;2022-12-29T06:44:29;10.50;99.90
11840;DHT22;5979;50.800;4.904;2022-12-29T06:46:54;10.50;99.90
11840;DHT22;5979;50.800;4.904;2022-12-29T06:49:20;10.50;99.90
11840;DHT22;5979;50.800;4.904;2022-12-29T06:51:46;10.50;99.90
11840;DHT22;5979;50.800;4.904;2022-12-29T06:54:12;10.50;99.90
11840;DHT22;5979;50.800;4.904;2022-12-29T06:56:38;10.60;99.90
11840;DHT22;5979;50.800;4.904;2022-12-29T06:59:03;10.60;99.90
11840;DHT22;5979;50.800;4.904;2022-12-29T07:01:30;10.60;99.90
11840;DHT22;5979;50.800;4.904;2022-12-29T07:03:55;10.50;99.90
11840;DHT22;5979;50.800;4.904;2022-12-29T07:06:21;10.50;99.90
11840;DHT22;5979;50.800;4.904;2022-12-29T07:08:47;10.50;99.90
11840;DHT22;5979;50.800;4.904;2022-12-29T07:11:13;10.50;99.90
11840;DHT22;5979;50.800;4.904;2022-12-29T07:13:38;10.40;99.90
11840;DHT22;5979;50.800;4.904;2022-12-29T07:16:08;10.40;99.90
11840;DHT22;5979;50.800;4.904;2022-12-29T07:18:34;10.40;99.90
11840;DHT22;5979;50.800;4.904;2022-12-29T07:21:00;10.40;99.90
11840;DHT22;5979;50.800;4.904;2022-12-29T07:23:26;10.30;99.90
11840;DHT22;5979;50.800;4.904;2022-12-29T07:26:02;10.20;99.90
11840;DHT22;5979;50.800;4.904;2022-12-29T07:28:28;10.20;99.90
11840;DHT22;5979;50.800;4.904;2022-12-29T07:30:54;10.20;99.90
11840;DHT22;5979;50.800;4.904;2022-12-29T07:33:20;10.20;99.90
11840;DHT22;5979;50.800;4.904;2022-12-29T07:35:46;10.20;99.90
11840;DHT22;5979;50.800;4.904;2022-12-29T07:38:12;10.20;99.90
11840;DHT22;5979;50.800;4.904;2022-12-29T07:40:38;10.20;99.90
11840;DHT22;5979;50.800;4.904;2022-12-29T07:43:04;10.20;99.90
11840;DHT22;5979;50.800;4.904;2022-12-29T07:45:30;10.20;99.90
11840;DHT22;5979;50.800;4.904;2022-12-29T07:47:55;10.20;99.90
11840;DHT22;5979;50.800;4.904;2022-12-29T07:50:21;10.20;99.90
11840;DHT22;5979;50.800;4.904;2022-12-29T07:52:47;10.10;99.90
11840;DHT22;5979;50.800;4.904;2022-12-29T07:55:14;10.10;99.90
11840;DHT22;5979;50.800;4.904;2022-12-29T07:57:40;10.20;99.90
11840;DHT22;5979;50.800;4.904;2022-12-29T08:00:06;10.10;99.90
11840;DHT22;5979;50.800;4.904;2022-12-29T08:02:32;10.20;99.90
11840;DHT22;5979;50.800;4.904;2022-12-29T08:04:58;10.20;99.90
11840;DHT22;5979;50.800;4.904;2022-12-29T08:07:23;10.20;99.90
11840;DHT22;5979;50.800;4.904;2022-12-29T08:09:49;10.10;99.90
11840;DHT22;5979;50.800;4.904;2022-12-29T08:12:15;10.10;99.90
11840;DHT22;5979;50.800;4.904;2022-12-29T08:14:40;10.10;99.90
11840;DHT22;5979;50.800;4.904;2022-12-29T08:17:06;10.20;99.90
11840;DHT22;5979;50.800;4.904;2022-12-29T08:19:32;10.20;99.90
11840;DHT22;5979;50.800;4.904;2022-12-29T08:21:57;10.20;99.90
11840;DHT22;5979;50.800;4.904;2022-12-29T08:24:23;10.30;99.90
11840;DHT22;5979;50.800;4.904;2022-12-29T08:26:49;10.20;99.90
11840;DHT22;5979;50.800;4.904;2022-12-29T08:29:14;10.30;99.90
11840;DHT22;5979;50.800;4.904;2022-12-29T08:31:40;10.20;99.90
11840;DHT22;5979;50.800;4.904;2022-12-29T08:34:05;10.30;99.90
11840;DHT22;5979;50.800;4.904;2022-12-29T08:36:31;10.30;99.90
11840;DHT22;5979;50.800;4.904;2022-12-29T08:38:58;10.30;99.90
11840;DHT22;5979;50.800;4.904;2022-12-29T08:41:23;10.30;99.90
11840;DHT22;5979;50.800;4.904;2022-12-29T08:43:49;10.30;99.90
11840;DHT22;5979;50.800;4.904;2022-12-29T08:46:16;10.30;99.90
11840;DHT22;5979;50.800;4.904;2022-12-29T08:48:42;10.30;99.90
11840;DHT22;5979;50.800;4.904;2022-12-29T08:51:08;10.30;99.90
11840;DHT22;5979;50.800;4.904;2022-12-29T08:53:33;10.30;99.90
11840;DHT22;5979;50.800;4.904;2022-12-29T08:56:00;10.30;99.90
11840;DHT22;5979;50.800;4.904;2022-12-29T08:58:26;10.30;99.90
11840;DHT22;5979;50.800;4.904;2022-12-29T09:00:54;10.40;99.90
11840;DHT22;5979;50.800;4.904;2022-12-29T09:03:20;10.30;99.90
11840;DHT22;5979;50.800;4.904;2022-12-29T09:05:51;10.30;99.90
11840;DHT22;5979;50.800;4.904;2022-12-29T09:08:17;10.30;99.90
11840;DHT22;5979;50.800;4.904;2022-12-29T09:10:43;10.20;99.90
11840;DHT22;5979;50.800;4.904;2022-12-29T09:13:11;10.20;99.90
11840;DHT22;5979;50.800;4.904;2022-12-29T09:15:37;10.10;99.90
11840;DHT22;5979;50.800;4.904;2022-12-29T09:18:03;10.10;99.90
11840;DHT22;5979;50.800;4.904;2022-12-29T09:20:29;10.10;99.90
11840;DHT22;5979;50.800;4.904;2022-12-29T09:22:54;10.10;99.90
11840;DHT22;5979;50.800;4.904;2022-12-29T09:25:20;10.10;99.90
11840;DHT22;5979;50.800;4.904;2022-12-29T09:27:48;10.10;99.90
11840;DHT22;5979;50.800;4.904;2022-12-29T09:30:14;10.10;99.90
11840;DHT22;5979;50.800;4.904;2022-12-29T09:32:40;10.10;99.90
11840;DHT22;5979;50.800;4.904;2022-12-29T09:35:06;10.10;99.90
11840;DHT22;5979;50.800;4.904;2022-12-29T09:37:32;10.10;99.90
11840;DHT22;5979;50.800;4.904;2022-12-29T09:39:58;10.10;99.90
11840;DHT22;5979;50.800;4.904;2022-12-29T09:45:08;10.10;99.90
11840;DHT22;5979;50.800;4.904;2022-12-29T09:47:36;10.20;99.90
11840;DHT22;5979;50.800;4.904;2022-12-29T09:52:40;10.30;99.90
11840;DHT22;5979;50.800;4.904;2022-12-29T09:55:19;10.30;99.90
11840;DHT22;5979;50.800;4.904;2022-12-29T09:57:59;10.30;99.90
11840;DHT22;5979;50.800;4.904;2022-12-29T10:03:19;10.40;99.90
11840;DHT22;5979;50.800;4.904;2022-12-29T10:22:04;10.30;99.90
11840;DHT22;5979;50.800;4.904;2022-12-29T10:24:38;10.40;99.90
11840;DHT22;5979;50.800;4.904;2022-12-29T10:27:10;10.50;99.90
11840;DHT22;5979;50.800;4.904;2022-12-29T10:29:48;10.60;99.90
11840;DHT22;5979;50.800;4.904;2022-12-29T10:32:37;10.60;99.90
11840;DHT22;5979;50.800;4.904;2022-12-29T10:35:15;10.70;99.90
11840;DHT22;5979;50.800;4.904;2022-12-29T10:40:53;11.00;99.90
11840;DHT22;5979;50.800;4.904;2022-12-29T10:43:29;11.00;99.90
11840;DHT22;5979;50.800;4.904;2022-12-29T10:46:04;11.00;99.90
11840;DHT22;5979;50.800;4.904;2022-12-29T10:48:34;11.10;99.90
11840;DHT22;5979;50.800;4.904;2022-12-29T10:51:02;11.10;99.90
11840;DHT22;5979;50.800;4.904;2022-12-29T10:53:40;11.20;99.90
11840;DHT22;5979;50.800;4.904;2022-12-29T10:57:36;11.40;99.90
11840;DHT22;5979;50.800;4.904;2022-12-29T10:59:31;11.40;99.90
11840;DHT22;5979;50.800;4.904;2022-12-29T11:04:55;11.50;99.90
11840;DHT22;5979;50.800;4.904;2022-12-29T11:07:23;11.60;99.90
11840;DHT22;5979;50.800;4.904;2022-12-29T11:09:49;11.60;99.90
11840;DHT22;5979;50.800;4.904;2022-12-29T11:12:33;11.60;99.90
11840;DHT22;5979;50.800;4.904;2022-12-29T11:15:14;11.60;99.90
11840;DHT22;5979;50.800;4.904;2022-12-29T11:17:45;11.50;99.90
11840;DHT22;5979;50.800;4.904;2022-12-29T11:20:32;11.50;99.90
11840;DHT22;5979;50.800;4.904;2022-12-29T11:22:59;11.40;99.90
11840;DHT22;5979;50.800;4.904;2022-12-29T11:25:26;11.40;99.90
11840;DHT22;5979;50.800;4.904;2022-12-29T11:28:11;11.30;99.90
11840;DHT22;5979;50.800;4.904;2022-12-29T11:30:39;11.20;99.90
11840;DHT22;5979;50.800;4.904;2022-12-29T11:33:05;11.20;99.90
11840;DHT22;5979;50.800;4.904;2022-12-29T11:35:33;11.20;99.90
11840;DHT22;5979;50.800;4.904;2022-12-29T11:37:58;11.20;99.90
11840;DHT22;5979;50.800;4.904;2022-12-29T11:40:25;11.20;99.90
11840;DHT22;5979;50.800;4.904;2022-12-29T11:42:56;11.20;99.90
11840;DHT22;5979;50.800;4.904;2022-12-29T11:45:27;11.20;99.90
11840;DHT22;5979;50.800;4.904;2022-12-29T11:48:18;11.20;99.90
11840;DHT22;5979;50.800;4.904;2022-12-29T11:50:51;11.20;99.90
11840;DHT22;5979;50.800;4.904;2022-12-29T11:53:47;11.10;99.90
11840;DHT22;5979;50.800;4.904;2022-12-29T11:56:17;11.20;99.90
11840;DHT22;5979;50.800;4.904;2022-12-29T11:58:44;11.20;99.90
11840;DHT22;5979;50.800;4.904;2022-12-29T12:01:28;11.20;99.90
11840;DHT22;5979;50.800;4.904;2022-12-29T12:04:15;11.20;99.90
11840;DHT22;5979;50.800;4.904;2022-12-29T12:06:49;11.30;99.90
11840;DHT22;5979;50.800;4.904;2022-12-29T12:10:01;11.30;99.90
11840;DHT22;5979;50.800;4.904;2022-12-29T12:12:41;11.30;99.90
11840;DHT22;5979;50.800;4.904;2022-12-29T12:15:36;11.30;99.90
11840;DHT22;5979;50.800;4.904;2022-12-29T12:18:08;11.30;99.90
11840;DHT22;5979;50.800;4.904;2022-12-29T12:25:41;11.30;99.90
11840;DHT22;5979;50.800;4.904;2022-12-29T12:28:23;11.30;99.90
11840;DHT22;5979;50.800;4.904;2022-12-29T12:30:55;11.40;99.90
11840;DHT22;5979;50.800;4.904;2022-12-29T12:33:35;11.40;99.90
11840;DHT22;5979;50.800;4.904;2022-12-29T12:37:06;11.40;99.90
11840;DHT22;5979;50.800;4.904;2022-12-29T12:39:22;11.40;99.90
11840;DHT22;5979;50.800;4.904;2022-12-29T12:53:31;11.50;99.90
11840;DHT22;5979;50.800;4.904;2022-12-29T12:56:23;11.40;99.90
11840;DHT22;5979;50.800;4.904;2022-12-29T13:21:19;11.20;99.90
11840;DHT22;5979;50.800;4.904;2022-12-29T13:24:12;11.20;99.90
11840;DHT22;5979;50.800;4.904;2022-12-29T13:26:46;11.20;99.90
11840;DHT22;5979;50.800;4.904;2022-12-29T13:29:18;11.30;99.90
11840;DHT22;5979;50.800;4.904;2022-12-29T13:37:18;11.10;99.90
11840;DHT22;5979;50.800;4.904;2022-12-29T13:39:52;11.10;99.90
11840;DHT22;5979;50.800;4.904;2022-12-29T13:42:21;11.10;99.90
11840;DHT22;5979;50.800;4.904;2022-12-29T13:44:59;11.10;99.90
11840;DHT22;5979;50.800;4.904;2022-12-29T13:47:49;11.10;99.90
11840;DHT22;5979;50.800;4.904;2022-12-29T13:50:22;11.10;99.90
11840;DHT22;5979;50.800;4.904;2022-12-29T13:55:52;11.10;99.90
11840;DHT22;5979;50.800;4.904;2022-12-29T14:04:14;10.90;99.90
11840;DHT22;5979;50.800;4.904;2022-12-29T14:06:40;10.80;99.90
11840;DHT22;5979;50.800;4.904;2022-12-29T14:09:30;10.70;99.90
11840;DHT22;5979;50.800;4.904;2022-12-29T14:11:57;10.70;99.90
11840;DHT22;5979;50.800;4.904;2022-12-29T14:16:50;10.70;99.90
11840;DHT22;5979;50.800;4.904;2022-12-29T14:21:52;10.60;99.90
11840;DHT22;5979;50.800;4.904;2022-12-29T14:34:58;10.60;99.90
11840;DHT22;5979;50.800;4.904;2022-12-29T14:37:32;10.40;99.90
11840;DHT22;5979;50.800;4.904;2022-12-29T14:42:29;10.40;99.90
11840;DHT22;5979;50.800;4.904;2022-12-29T14:47:50;10.30;99.90
11840;DHT22;5979;50.800;4.904;2022-12-29T14:53:02;10.30;99.90
11840;DHT22;5979;50.800;4.904;2022-12-29T14:55:46;10.30;99.90
11840;DHT22;5979;50.800;4.904;2022-12-29T15:00:52;10.30;99.90
11840;DHT22;5979;50.800;4.904;2022-12-29T15:03:24;10.20;99.90
11840;DHT22;5979;50.800;4.904;2022-12-29T15:06:08;10.10;99.90
11840;DHT22;5979;50.800;4.904;2022-12-29T15:13:44;9.90;99.90
11840;DHT22;5979;50.800;4.904;2022-12-29T15:16:31;9.80;99.90
11840;DHT22;5979;50.800;4.904;2022-12-29T15:18:57;9.70;99.90
11840;DHT22;5979;50.800;4.904;2022-12-29T15:21:31;9.60;99.90
11840;DHT22;5979;50.800;4.904;2022-12-29T15:23:58;9.40;99.90
11840;DHT22;5979;50.800;4.904;2022-12-29T15:26:36;9.40;99.90
11840;DHT22;5979;50.800;4.904;2022-12-29T15:29:03;9.40;99.90
11840;DHT22;5979;50.800;4.904;2022-12-29T15:31:29;9.30;99.90
11840;DHT22;5979;50.800;4.904;2022-12-29T15:34:03;9.20;99.90
11840;DHT22;5979;50.800;4.904;2022-12-29T15:36:39;9.20;99.90
11840;DHT22;5979;50.800;4.904;2022-12-29T15:39:29;9.20;99.90
11840;DHT22;5979;50.800;4.904;2022-12-29T15:41:59;9.10;99.90
11840;DHT22;5979;50.800;4.904;2022-12-29T15:44:42;9.10;99.90
11840;DHT22;5979;50.800;4.904;2022-12-29T15:49:44;9.00;99.90
11840;DHT22;5979;50.800;4.904;2022-12-29T15:52:20;9.10;99.90
11840;DHT22;5979;50.800;4.904;2022-12-29T15:54:48;9.10;99.90
11840;DHT22;5979;50.800;4.904;2022-12-29T15:59:47;9.20;99.90
11840;DHT22;5979;50.800;4.904;2022-12-29T16:02:13;9.10;99.90
11840;DHT22;5979;50.800;4.904;2022-12-29T16:04:40;9.00;99.90
11840;DHT22;5979;50.800;4.904;2022-12-29T16:07:29;9.00;99.90
11840;DHT22;5979;50.800;4.904;2022-12-29T16:09:57;8.90;99.90
11840;DHT22;5979;50.800;4.904;2022-12-29T16:12:32;8.80;99.90
11840;DHT22;5979;50.800;4.904;2022-12-29T16:15:06;8.80;99.90
11840;DHT22;5979;50.800;4.904;2022-12-29T16:17:56;8.70;99.90
11840;DHT22;5979;50.800;4.904;2022-12-29T16:20:39;8.70;99.90
11840;DHT22;5979;50.800;4.904;2022-12-29T16:23:21;8.60;99.90
11840;DHT22;5979;50.800;4.904;2022-12-29T16:25:48;8.60;99.90
11840;DHT22;5979;50.800;4.904;2022-12-29T16:28:22;8.60;99.90
11840;DHT22;5979;50.800;4.904;2022-12-29T16:31:04;8.60;99.90
11840;DHT22;5979;50.800;4.904;2022-12-29T16:33:55;8.60;99.90
11840;DHT22;5979;50.800;4.904;2022-12-29T16:36:39;8.50;99.90
11840;DHT22;5979;50.800;4.904;2022-12-29T16:39:30;8.50;99.90
11840;DHT22;5979;50.800;4.904;2022-12-29T16:41:56;8.40;99.90
11840;DHT22;5979;50.800;4.904;2022-12-29T16:44:27;8.40;99.90
11840;DHT22;5979;50.800;4.904;2022-12-29T16:49:43;8.30;99.90
11840;DHT22;5979;50.800;4.904;2022-12-29T16:52:29;8.30;99.90
11840;DHT22;5979;50.800;4.904;2022-12-29T16:54:59;8.30;99.90
11840;DHT22;5979;50.800;4.904;2022-12-29T16:57:35;8.30;99.90
11840;DHT22;5979;50.800;4.904;2022-12-29T17:00:05;8.30;99.90
11840;DHT22;5979;50.800;4.904;2022-12-29T17:02:32;8.30;99.90
11840;DHT22;5979;50.800;4.904;2022-12-29T17:04:58;8.40;99.90
11840;DHT22;5979;50.800;4.904;2022-12-29T17:07:26;8.40;99.90
11840;DHT22;5979;50.800;4.904;2022-12-29T17:09:52;8.40;99.90
11840;DHT22;5979;50.800;4.904;2022-12-29T17:12:24;8.50;99.90
11840;DHT22;5979;50.800;4.904;2022-12-29T17:19:57;8.50;99.90
11840;DHT22;5979;50.800;4.904;2022-12-29T17:22:26;8.50;99.90
11840;DHT22;5979;50.800;4.904;2022-12-29T17:24:54;8.60;99.90
11840;DHT22;5979;50.800;4.904;2022-12-29T17:29:57;8.50;99.90
11840;DHT22;5979;50.800;4.904;2022-12-29T17:32:23;8.50;99.90
11840;DHT22;5979;50.800;4.904;2022-12-29T17:34:48;8.40;99.90
11840;DHT22;5979;50.800;4.904;2022-12-29T17:39:53;8.30;99.90
11840;DHT22;5979;50.800;4.904;2022-12-29T17:42:19;8.30;99.90
11840;DHT22;5979;50.800;4.904;2022-12-29T17:44:44;8.20;99.90
11840;DHT22;5979;50.800;4.904;2022-12-29T17:47:11;8.20;99.90
11840;DHT22;5979;50.800;4.904;2022-12-29T17:49:37;8.20;99.90
11840;DHT22;5979;50.800;4.904;2022-12-29T17:52:03;8.20;99.90
11840;DHT22;5979;50.800;4.904;2022-12-29T17:54:30;8.10;99.90
11840;DHT22;5979;50.800;4.904;2022-12-29T17:56:56;8.10;99.90
11840;DHT22;5979;50.800;4.904;2022-12-29T17:59:22;8.10;99.90
11840;DHT22;5979;50.800;4.904;2022-12-29T18:01:48;8.10;99.90
11840;DHT22;5979;50.800;4.904;2022-12-29T18:04:19;8.00;99.90
11840;DHT22;5979;50.800;4.904;2022-12-29T18:06:45;8.00;99.90
11840;DHT22;5979;50.800;4.904;2022-12-29T18:09:12;8.00;99.90
11840;DHT22;5979;50.800;4.904;2022-12-29T18:11:39;7.90;99.90
11840;DHT22;5979;50.800;4.904;2022-12-29T18:14:11;7.90;99.90
11840;DHT22;5979;50.800;4.904;2022-12-29T18:16:37;7.90;99.90
11840;DHT22;5979;50.800;4.904;2022-12-29T18:19:03;7.90;99.90
11840;DHT22;5979;50.800;4.904;2022-12-29T18:21:29;7.80;99.90
11840;DHT22;5979;50.800;4.904;2022-12-29T18:23:55;7.80;99.90
11840;DHT22;5979;50.800;4.904;2022-12-29T18:26:23;7.80;99.90
11840;DHT22;5979;50.800;4.904;2022-12-29T18:28:50;7.80;99.90
11840;DHT22;5979;50.800;4.904;2022-12-29T18:31:17;7.80;99.90
11840;DHT22;5979;50.800;4.904;2022-12-29T18:33:43;7.70;99.90
11840;DHT22;5979;50.800;4.904;2022-12-29T18:36:11;7.70;99.90
11840;DHT22;5979;50.800;4.904;2022-12-29T18:38:37;7.70;99.90
11840;DHT22;5979;50.800;4.904;2022-12-29T18:41:03;7.70;99.90
11840;DHT22;5979;50.800;4.904;2022-12-29T18:43:28;7.70;99.90
11840;DHT22;5979;50.800;4.904;2022-12-29T18:45:54;7.70;99.90
11840;DHT22;5979;50.800;4.904;2022-12-29T18:48:20;7.70;99.90
11840;DHT22;5979;50.800;4.904;2022-12-29T18:50:47;7.70;99.90
11840;DHT22;5979;50.800;4.904;2022-12-29T18:53:21;7.70;99.90
11840;DHT22;5979;50.800;4.904;2022-12-29T18:55:47;7.70;99.90
11840;DHT22;5979;50.800;4.904;2022-12-29T18:58:13;7.80;99.90
11840;DHT22;5979;50.800;4.904;2022-12-29T19:00:39;7.80;99.90
11840;DHT22;5979;50.800;4.904;2022-12-29T19:03:05;7.80;99.90
11840;DHT22;5979;50.800;4.904;2022-12-29T19:05:39;7.80;99.90